C. Angelo — WCZ5866 — position and weather

sailwx.info

Track history (hours):
 
Tides and Currents Weather Stations Pressure Air Temp Water Temp Dewpoint Dewpoint Depression Visibility Wind Speed Wind Dir Waves Ship Positions

C. Angelo

Owner: G T 110 INC, NEW HAVEN, CT. More information available from US FCC via Universal Licensing System and Coast Guard Vessel Documentation Center.

Last reported at 2017-May-28 13:42 UTC. Time now 2017-Jun-24 22:36 UTC.
Position N 41°11' W 072°32'.
Warning: this ship's position is 27 days out of date.

MMSI: 366988420.

Date/timePositionNaut miles runAvg speedWind from/ knotsBaromVisibWave heightAir tempDewpointWater temp
2017-May-28 13:42N 41°11' W 072°32'2 7.3
2017-May-28 13:30N 41°11' W 072°30'3 6.8
2017-May-28 13:00N 41°11' W 072°26'3 6.4
2017-May-28 12:31N 41°12' W 072°22'3 5.7
2017-May-28 12:01N 41°13' W 072°18'3 5.0
2017-May-28 11:30N 41°13' W 072°15'2 3.8
2017-May-28 10:55N 41°14' W 072°12'  
2017-May-24 22:45N 39°55' W 073°54'3 9.6
2017-May-24 22:30N 39°53' W 073°55'5 9.7
2017-May-24 22:00N 39°48' W 073°55'5 9.7
2017-May-24 21:30N 39°43' W 073°55'5 9.4
2017-May-24 21:00N 39°39' W 073°58'5 9.3
2017-May-24 20:30N 39°34' W 073°60'  
Track history (hours):
 
Tides and Currents Weather Stations Pressure Air Temp Water Temp Dewpoint Dewpoint Depression Visibility Wind Speed Wind Dir Waves Ship Positions

C. Angelo

Owner: G T 110 INC, NEW HAVEN, CT. More information available from US FCC via Universal Licensing System and Coast Guard Vessel Documentation Center.

Last reported at 2017-May-28 13:42 UTC. Time now 2017-Jun-24 22:36 UTC.
Position N 41°11' W 072°32'.
Warning: this ship's position is 27 days out of date.

MMSI: 366988420.

Date/timePositionNaut miles runAvg speedWind from/ knotsBaromVisibWave heightAir tempDewpointWater temp
2017-May-28 13:42N 41°11' W 072°32'2 7.3
2017-May-28 13:30N 41°11' W 072°30'3 6.8
2017-May-28 13:00N 41°11' W 072°26'3 6.4
2017-May-28 12:31N 41°12' W 072°22'3 5.7
2017-May-28 12:01N 41°13' W 072°18'3 5.0
2017-May-28 11:30N 41°13' W 072°15'2 3.8
2017-May-28 10:55N 41°14' W 072°12'  
2017-May-24 22:45N 39°55' W 073°54'3 9.6
2017-May-24 22:30N 39°53' W 073°55'5 9.7
2017-May-24 22:00N 39°48' W 073°55'5 9.7
2017-May-24 21:30N 39°43' W 073°55'5 9.4
2017-May-24 21:00N 39°39' W 073°58'5 9.3
2017-May-24 20:30N 39°34' W 073°60'  

Dump ship's entire track history